Time;durP1;ratioP1;P1;durP2;ratioP2;P2;SDS_P1;SDS_P2;PMS_P1;PMS_P2;Temp;Humidity;BMP_temperature;BMP_pressure;BME280_temperature;BME280_humidity;BME280_pressure;Samples;Min_cycle;Max_cycle;Signal;HPM_P1;HPM_P2
2023/07/08 00:01:13;;;;;;;7.30;2.75;;;;;;;20.01;91.15;101613.31;5023760;28;20049;-58
2023/07/08 00:03:42;;;;;;;6.38;2.92;;;;;;;19.95;91.19;101613.91;5017872;28;20065;-58
2023/07/08 00:06:17;;;;;;;5.40;2.67;;;;;;;19.94;90.99;101609.56;5020374;28;20104;-58
2023/07/08 00:08:45;;;;;;;5.25;2.50;;;;;;;19.91;90.52;101612.53;5008788;28;20056;-58
2023/07/08 00:11:15;;;;;;;7.57;2.53;;;;;;;19.93;91.02;101610.53;5022907;28;20041;-58
2023/07/08 00:13:44;;;;;;;5.50;2.40;;;;;;;19.87;91.63;101606.63;5029593;28;20049;-57
2023/07/08 00:16:18;;;;;;;6.88;3.10;;;;;;;19.82;92.17;101600.84;5017464;28;20052;-58
2023/07/08 00:18:48;;;;;;;7.25;2.70;;;;;;;19.85;92.26;101602.41;5008298;28;20164;-57
2023/07/08 00:21:19;;;;;;;4.78;2.67;;;;;;;19.82;92.73;101597.34;5020601;28;20137;-59
2023/07/08 00:23:49;;;;;;;7.85;2.90;;;;;;;19.87;92.48;101600.44;5028408;28;20050;-59
2023/07/08 00:26:21;;;;;;;6.95;2.67;;;;;;;19.82;92.56;101589.34;5021770;28;20042;-59
2023/07/08 00:28:49;;;;;;;5.43;2.70;;;;;;;19.82;92.20;101589.34;5029722;28;20084;-59
2023/07/08 00:31:23;;;;;;;6.72;2.88;;;;;;;19.82;92.33;101592.00;5020046;28;20052;-60
2023/07/08 00:33:55;;;;;;;6.97;2.85;;;;;;;19.80;93.90;101594.84;5027754;28;20109;-59
2023/07/08 00:36:28;;;;;;;9.00;2.47;;;;;;;19.70;93.96;101594.81;5012358;28;20056;-58
2023/07/08 00:38:57;;;;;;;5.82;2.83;;;;;;;19.59;94.29;101592.28;5010955;28;20209;-60
2023/07/08 00:41:30;;;;;;;6.50;2.83;;;;;;;19.57;94.84;101584.41;5010183;28;20100;-57
2023/07/08 00:44:00;;;;;;;5.93;2.67;;;;;;;19.58;95.05;101580.78;5015902;28;20382;-58
2023/07/08 00:46:48;;;;;;;7.22;2.88;;;;;;;19.50;95.49;101567.31;5015829;28;20038;-57
2023/07/08 00:49:30;;;;;;;7.68;3.03;;;;;;;19.46;96.19;101565.06;5029388;28;20056;-59
2023/07/08 00:52:25;;;;;;;6.72;2.85;;;;;;;19.38;95.84;101569.25;5023461;28;20068;-57
2023/07/08 00:54:55;;;;;;;6.30;3.05;;;;;;;19.42;95.68;101567.16;4988003;28;20104;-57
2023/07/08 00:57:29;;;;;;;7.32;2.88;;;;;;;19.33;96.50;101570.66;5009541;28;20156;-58
2023/07/08 01:00:03;;;;;;;5.38;2.88;;;;;;;19.33;97.43;101570.66;5009109;28;20073;-58
2023/07/08 01:02:36;;;;;;;5.93;2.95;;;;;;;19.28;97.29;101573.75;5024297;28;20045;-59
2023/07/08 01:05:08;;;;;;;6.22;2.53;;;;;;;19.26;98.01;101565.03;5029074;28;20089;-57
2023/07/08 01:07:45;;;;;;;6.18;2.95;;;;;;;19.22;98.67;101568.97;5018749;28;20025;-57
2023/07/08 01:10:18;;;;;;;6.10;2.80;;;;;;;19.20;98.91;101565.63;5028584;28;20688;-58
2023/07/08 01:12:52;;;;;;;6.50;2.80;;;;;;;19.22;99.50;101559.16;5018810;28;20365;-58
2023/07/08 01:15:23;;;;;;;6.07;2.92;;;;;;;19.15;98.42;101562.53;5017632;28;20518;-59
2023/07/08 01:17:53;;;;;;;7.55;3.05;;;;;;;19.13;99.59;101561.81;5007350;28;20052;-60
2023/07/08 01:20:21;;;;;;;7.00;2.83;;;;;;;19.00;99.90;101565.56;5009527;28;20049;-60
2023/07/08 01:22:51;;;;;;;5.93;2.70;;;;;;;18.98;99.82;101567.56;5009740;28;20080;-58
2023/07/08 01:25:22;;;;;;;5.50;2.90;;;;;;;18.97;99.59;101557.03;5010787;28;20111;-61
2023/07/08 01:27:55;;;;;;;5.55;2.80;;;;;;;18.91;99.96;101558.44;5016534;28;20052;-58
2023/07/08 01:30:23;;;;;;;;;;;;;;;18.87;100.00;101548.97;5019080;28;20456;-58
2023/07/08 01:32:59;;;;;;;6.25;2.75;;;;;;;18.84;100.00;101549.25;5025210;28;20300;-59
2023/07/08 01:35:28;;;;;;;6.75;2.88;;;;;;;18.78;100.00;101547.16;5017443;28;20050;-58
2023/07/08 01:38:01;;;;;;;6.88;2.80;;;;;;;18.80;100.00;101547.84;5007582;28;20077;-63
2023/07/08 01:40:32;;;;;;;6.47;2.80;;;;;;;18.71;100.00;101547.69;5016771;28;20512;-58
2023/07/08 01:43:02;;;;;;;6.22;2.60;;;;;;;18.72;100.00;101541.38;5027434;28;20432;-58
2023/07/08 01:45:35;;;;;;;9.23;3.00;;;;;;;18.71;100.00;101541.50;5024360;28;20050;-60
2023/07/08 01:48:06;;;;;;;7.10;3.05;;;;;;;18.62;100.00;101540.50;5016883;28;20061;-59
2023/07/08 01:50:38;;;;;;;9.05;3.08;;;;;;;18.60;100.00;101542.47;5024701;28;20058;-59
2023/07/08 01:53:11;;;;;;;7.40;3.10;;;;;;;18.57;100.00;101542.75;5011642;28;20528;-58
2023/07/08 01:55:40;;;;;;;7.03;3.55;;;;;;;18.56;100.00;101541.06;5021590;28;20042;-59
2023/07/08 01:58:08;;;;;;;7.85;2.75;;;;;;;18.49;100.00;101539.91;5029288;28;20053;-59
2023/07/08 02:00:37;;;;;;;8.48;3.10;;;;;;;18.49;100.00;101538.09;5019901;28;20053;-59
2023/07/08 02:03:05;;;;;;;5.22;2.78;;;;;;;18.52;100.00;101535.13;5031936;28;20078;-59
2023/07/08 02:05:34;;;;;;;8.88;2.97;;;;;;;18.48;100.00;101530.22;5027169;28;20072;-58
2023/07/08 02:08:02;;;;;;;5.65;2.75;;;;;;;18.47;100.00;101528.53;5011166;28;20072;-58
2023/07/08 02:10:32;;;;;;;6.35;2.97;;;;;;;18.43;100.00;101519.97;5014958;28;20053;-58
2023/07/08 02:13:01;;;;;;;7.05;3.03;;;;;;;18.42;100.00;101512.97;5030606;28;20579;-59
2023/07/08 02:15:29;;;;;;;7.22;3.28;;;;;;;18.40;100.00;101510.44;5030253;28;20045;-58
2023/07/08 02:17:58;;;;;;;6.72;2.92;;;;;;;18.39;100.00;101514.09;5013327;28;20085;-59
2023/07/08 02:20:26;;;;;;;6.78;3.20;;;;;;;18.34;100.00;101516.31;5013687;28;20049;-59
2023/07/08 02:22:55;;;;;;;8.05;2.88;;;;;;;18.41;100.00;101517.44;5030927;28;20037;-59
2023/07/08 02:25:23;;;;;;;7.40;3.15;;;;;;;18.38;100.00;101512.41;5030748;28;20568;-60
2023/07/08 02:27:57;;;;;;;8.70;3.00;;;;;;;18.34;100.00;101508.31;5011300;28;20413;-59
2023/07/08 02:30:25;;;;;;;6.47;2.97;;;;;;;18.32;100.00;101512.09;5026673;28;20075;-58
2023/07/08 02:32:57;;;;;;;7.00;3.03;;;;;;;18.28;100.00;101508.84;4994774;28;20661;-59
2023/07/08 02:35:27;;;;;;;5.97;3.00;;;;;;;18.23;100.00;101503.94;4992503;28;20057;-60
2023/07/08 02:37:57;;;;;;;8.02;2.92;;;;;;;18.24;100.00;101505.63;5011144;28;20053;-59
2023/07/08 02:40:27;;;;;;;5.38;3.15;;;;;;;18.17;100.00;101503.63;5011633;28;20045;-59
2023/07/08 02:42:56;;;;;;;6.82;3.03;;;;;;;18.10;100.00;101505.16;5029283;28;20099;-60
2023/07/08 02:45:25;;;;;;;7.13;3.47;;;;;;;18.11;100.00;101507.66;5031117;28;20053;-60
2023/07/08 02:47:54;;;;;;;5.72;3.13;;;;;;;18.07;100.00;101512.41;5011562;28;20050;-58
2023/07/08 02:50:22;;;;;;;6.07;2.95;;;;;;;18.05;100.00;101508.19;5017504;28;20492;-60
2023/07/08 02:52:50;;;;;;;7.30;3.22;;;;;;;18.05;100.00;101506.38;5012374;28;20042;-60
2023/07/08 02:55:19;;;;;;;9.85;3.33;;;;;;;18.03;100.00;101505.66;5011101;28;20041;-60
2023/07/08 02:57:47;;;;;;;6.22;3.03;;;;;;;18.03;100.00;101502.16;5025519;28;20419;-60
2023/07/08 03:00:18;;;;;;;6.10;3.55;;;;;;;17.98;100.00;101499.06;5030203;28;20034;-59
2023/07/08 03:02:46;;;;;;;7.22;2.97;;;;;;;18.01;100.00;101499.66;5016217;28;20057;-58
2023/07/08 03:05:15;;;;;;;6.95;3.22;;;;;;;17.94;100.00;101501.13;5010980;28;20049;-59
2023/07/08 03:07:47;;;;;;;6.30;3.25;;;;;;;17.94;100.00;101505.63;5023687;28;20448;-59
2023/07/08 03:10:15;;;;;;;5.40;2.83;;;;;;;17.88;100.00;101501.63;5030377;28;20041;-59
2023/07/08 03:12:44;;;;;;;6.60;2.90;;;;;;;17.84;100.00;101501.03;5018295;28;20057;-59
2023/07/08 03:15:12;;;;;;;7.00;2.83;;;;;;;17.79;100.00;101489.13;5010255;28;20057;-59
2023/07/08 03:17:43;;;;;;;6.30;2.83;;;;;;;17.82;100.00;101499.50;5017541;28;20060;-59
2023/07/08 03:20:12;;;;;;;5.93;3.00;;;;;;;17.74;100.00;101493.03;5010417;28;20096;-58
2023/07/08 03:22:41;;;;;;;6.05;3.17;;;;;;;17.73;100.00;101495.81;5010638;28;20430;-60
2023/07/08 03:25:10;;;;;;;8.57;3.30;;;;;;;17.76;100.00;101500.88;5013822;28;20058;-57
2023/07/08 03:27:38;;;;;;;7.30;3.00;;;;;;;17.76;100.00;101502.69;5020895;28;20048;-57
2023/07/08 03:30:09;;;;;;;6.72;3.20;;;;;;;17.77;100.00;101496.41;5009345;28;20132;-57
2023/07/08 03:32:37;;;;;;;6.15;3.08;;;;;;;17.77;100.00;101496.41;5016590;28;20049;-58
2023/07/08 03:35:09;;;;;;;5.85;3.13;;;;;;;17.68;100.00;101498.88;5029748;28;20531;-59
2023/07/08 03:37:38;;;;;;;7.03;2.80;;;;;;;17.67;100.00;101505.16;5022897;28;20073;-59
2023/07/08 03:40:10;;;;;;;7.75;3.42;;;;;;;17.63;100.00;101510.84;5027103;28;20088;-59
2023/07/08 03:42:39;;;;;;;5.53;3.08;;;;;;;17.63;100.00;101505.53;5029489;28;20052;-59
2023/07/08 03:45:08;;;;;;;6.70;3.33;;;;;;;17.64;100.00;101510.75;5029281;28;20049;-59
2023/07/08 03:47:37;;;;;;;6.40;3.10;;;;;;;17.58;100.00;101516.56;5024221;28;20048;-59
2023/07/08 03:50:17;;;;;;;6.63;3.30;;;;;;;17.57;100.00;101514.88;5017531;28;20528;-59
2023/07/08 03:52:46;;;;;;;7.80;3.25;;;;;;;17.58;100.00;101508.59;5020526;28;20412;-58
2023/07/08 03:55:15;;;;;;;7.47;3.17;;;;;;;17.63;100.00;101509.06;5018815;28;20049;-60
2023/07/08 03:57:44;;;;;;;9.40;3.15;;;;;;;17.60;100.00;101513.78;5022250;28;20040;-60
2023/07/08 04:00:14;;;;;;;9.00;3.50;;;;;;;17.61;100.00;101507.50;5017456;28;20088;-58
2023/07/08 04:02:44;;;;;;;7.07;3.17;;;;;;;17.66;100.00;101506.13;5010168;28;20041;-55
2023/07/08 04:05:15;;;;;;;5.85;3.30;;;;;;;17.63;100.00;101493.09;5010616;28;20046;-56
2023/07/08 04:07:44;;;;;;;6.47;3.13;;;;;;;17.61;100.00;101508.31;5011191;28;20098;-57
2023/07/08 04:10:13;;;;;;;5.53;2.92;;;;;;;17.59;100.00;101507.63;5016111;28;20044;-57
2023/07/08 04:12:42;;;;;;;7.15;3.47;;;;;;;17.63;100.00;101506.41;5022243;28;20037;-57
2023/07/08 04:15:13;;;;;;;7.43;3.40;;;;;;;17.59;100.00;101523.59;5026893;28;20569;-57
2023/07/08 04:17:45;;;;;;;6.13;2.90;;;;;;;17.65;100.00;101516.91;5020244;28;20120;-58
2023/07/08 04:20:19;;;;;;;4.67;2.70;;;;;;;17.65;100.00;101511.59;5019552;28;20050;-58
2023/07/08 04:22:48;;;;;;;6.38;3.22;;;;;;;17.62;100.00;101517.16;5013746;28;20475;-58
2023/07/08 04:25:17;;;;;;;7.90;3.47;;;;;;;17.62;100.00;101510.03;5009696;28;20527;-58
2023/07/08 04:27:45;;;;;;;6.35;3.17;;;;;;;17.64;100.00;101507.22;5023513;28;20041;-58
2023/07/08 04:30:22;;;;;;;5.72;3.00;;;;;;;17.66;100.00;101510.63;5009112;28;20052;-56
2023/07/08 04:32:53;;;;;;;5.65;3.25;;;;;;;17.65;100.00;101516.91;5009182;28;20050;-57
2023/07/08 04:35:23;;;;;;;7.70;3.08;;;;;;;17.66;100.00;101515.94;5011311;28;20088;-57
2023/07/08 04:37:51;;;;;;;9.65;3.35;;;;;;;17.65;100.00;101524.88;5009132;28;20073;-57
2023/07/08 04:40:22;;;;;;;9.23;3.30;;;;;;;17.68;100.00;101532.59;5026411;28;20096;-57
2023/07/08 04:42:51;;;;;;;7.30;3.40;;;;;;;17.77;100.00;101529.16;5020011;28;20045;-58
2023/07/08 04:45:20;;;;;;;5.15;2.92;;;;;;;17.75;100.00;101525.78;5022933;28;20742;-58
2023/07/08 04:47:51;;;;;;;7.40;3.13;;;;;;;17.73;100.00;101514.44;5025871;28;20037;-59
2023/07/08 04:50:22;;;;;;;8.25;3.25;;;;;;;17.75;100.00;101520.44;5025407;28;20045;-58
2023/07/08 04:52:51;;;;;;;6.25;3.35;;;;;;;17.74;100.00;101516.13;5024653;28;20125;-58
2023/07/08 04:55:20;;;;;;;7.40;3.33;;;;;;;17.76;100.00;101521.31;5014637;28;20100;-57
2023/07/08 04:57:48;;;;;;;6.10;3.05;;;;;;;17.78;100.00;101520.22;5011046;28;20084;-58
2023/07/08 05:00:20;;;;;;;6.50;3.33;;;;;;;17.81;100.00;101513.78;5008606;28;20168;-58
2023/07/08 05:02:48;;;;;;;7.57;3.20;;;;;;;17.87;100.00;101518.56;5007639;28;20045;-57
2023/07/08 05:05:17;;;;;;;6.88;3.05;;;;;;;17.88;100.00;101515.78;5008955;28;20141;-58
2023/07/08 05:07:49;;;;;;;7.85;3.50;;;;;;;17.91;100.00;101509.34;5008298;28;20052;-58
2023/07/08 05:10:18;;;;;;;7.10;3.38;;;;;;;17.90;100.00;101512.97;5008943;28;20434;-57
2023/07/08 05:12:47;;;;;;;6.35;2.85;;;;;;;17.94;100.00;101509.09;5008343;28;20050;-58
2023/07/08 05:15:16;;;;;;;7.30;3.20;;;;;;;17.95;100.00;101518.78;5008343;28;20049;-59
2023/07/08 05:17:45;;;;;;;8.38;3.17;;;;;;;17.99;100.00;101520.22;5006662;28;20045;-58
2023/07/08 05:20:15;;;;;;;7.50;3.50;;;;;;;18.02;100.00;101519.94;5008740;28;20075;-58
2023/07/08 05:22:44;;;;;;;7.88;3.25;;;;;;;18.12;100.00;101521.81;5008474;28;20046;-58
2023/07/08 05:25:16;;;;;;;7.20;3.33;;;;;;;18.14;100.00;101510.06;5014203;28;20073;-57
2023/07/08 05:27:48;;;;;;;6.65;3.45;;;;;;;18.19;100.00;101512.34;5015613;28;20069;-58
2023/07/08 05:30:19;;;;;;;9.65;3.47;;;;;;;18.28;100.00;101500.84;5007901;28;20548;-57
2023/07/08 05:32:47;;;;;;;7.97;3.60;;;;;;;18.33;100.00;101505.78;5011144;28;20523;-57
2023/07/08 05:35:16;;;;;;;9.70;3.72;;;;;;;18.38;100.00;101500.91;5011346;28;20172;-57
2023/07/08 05:37:46;;;;;;;7.47;3.28;;;;;;;18.43;100.00;101504.00;5010636;28;20048;-57
2023/07/08 05:40:17;;;;;;;8.93;3.70;;;;;;;18.58;100.00;101501.78;5011222;28;20070;-57
2023/07/08 05:42:45;;;;;;;8.80;3.47;;;;;;;18.74;100.00;101499.44;5007373;28;20048;-59
2023/07/08 05:45:13;;;;;;;8.15;3.40;;;;;;;18.83;100.00;101496.94;5019878;28;20037;-59
2023/07/08 05:47:42;;;;;;;8.18;3.50;;;;;;;18.90;100.00;101496.28;5013685;28;20742;-59
2023/07/08 05:50:11;;;;;;;8.00;3.40;;;;;;;18.93;100.00;101500.50;5012330;28;20133;-59
2023/07/08 05:52:39;;;;;;;7.07;3.42;;;;;;;18.96;100.00;101504.69;5007502;28;20049;-58
2023/07/08 05:55:08;;;;;;;8.18;3.65;;;;;;;19.05;100.00;101501.22;5019632;28;20046;-57
2023/07/08 05:57:38;;;;;;;6.85;3.20;;;;;;;19.15;100.00;101510.03;5024109;28;20049;-58
2023/07/08 06:00:08;;;;;;;6.45;3.28;;;;;;;19.29;100.00;101511.44;5013216;28;20442;-56
2023/07/08 06:02:36;;;;;;;8.48;3.53;;;;;;;19.27;100.00;101518.75;5007628;28;20049;-57
2023/07/08 06:05:06;;;;;;;7.38;3.60;;;;;;;19.34;100.00;101519.03;5007014;28;20065;-57
2023/07/08 06:07:34;;;;;;;8.02;3.10;;;;;;;19.46;100.00;101512.56;5008748;28;20100;-57
2023/07/08 06:10:04;;;;;;;7.50;3.55;;;;;;;19.51;100.00;101517.44;5009350;28;20835;-58
2023/07/08 06:12:32;;;;;;;10.27;3.72;;;;;;;19.57;100.00;101525.72;5026813;28;20037;-57
2023/07/08 06:15:02;;;;;;;8.38;3.58;;;;;;;19.69;100.00;101529.09;5012843;28;20050;-57
2023/07/08 06:17:31;;;;;;;8.73;3.80;;;;;;;19.81;100.00;101526.28;5010869;28;20492;-58
2023/07/08 06:19:59;;;;;;;9.05;3.78;;;;;;;19.88;100.00;101527.41;5019915;28;20466;-59
2023/07/08 06:22:28;;;;;;;6.90;3.15;;;;;;;20.02;100.00;101520.75;5025302;28;20046;-59
2023/07/08 06:25:14;;;;;;;7.05;3.55;;;;;;;20.16;100.00;101517.59;5022642;28;20060;-58
2023/07/08 06:27:43;;;;;;;7.78;3.40;;;;;;;20.29;100.00;101513.75;5028753;28;20049;-59
2023/07/08 06:30:13;;;;;;;7.90;3.58;;;;;;;20.45;100.00;101519.31;5024034;28;20049;-58
2023/07/08 06:32:41;;;;;;;7.60;3.20;;;;;;;20.63;100.00;101515.81;5029261;28;20037;-58
2023/07/08 06:35:10;;;;;;;9.07;3.33;;;;;;;20.74;100.00;101513.00;5026163;28;20499;-58
2023/07/08 06:37:38;;;;;;;6.13;3.35;;;;;;;20.88;100.00;101517.81;5021905;28;20428;-58
2023/07/08 06:40:08;;;;;;;7.72;3.60;;;;;;;20.98;100.00;101503.53;5022332;28;20505;-59
2023/07/08 06:42:36;;;;;;;6.05;2.80;;;;;;;21.09;100.00;101516.66;5027011;28;20045;-58
2023/07/08 06:45:06;;;;;;;7.43;3.50;;;;;;;21.23;100.00;101516.13;5026055;28;20120;-59
2023/07/08 06:47:35;;;;;;;6.47;2.97;;;;;;;21.38;100.00;101516.44;5014703;28;20436;-59
2023/07/08 06:50:05;;;;;;;8.90;3.38;;;;;;;21.56;100.00;101510.25;5019499;28;20156;-58
2023/07/08 06:52:36;;;;;;;7.10;3.13;;;;;;;21.70;100.00;101506.97;5023878;28;20037;-59
2023/07/08 06:55:08;;;;;;;8.32;3.17;;;;;;;21.89;100.00;101505.09;5032150;28;20392;-59
2023/07/08 06:57:38;;;;;;;6.55;3.20;;;;;;;22.06;100.00;101506.00;5019958;28;20504;-59
2023/07/08 07:00:08;;;;;;;8.23;3.15;;;;;;;22.19;100.00;101500.22;5015327;28;20058;-58
2023/07/08 07:02:39;;;;;;;7.38;3.13;;;;;;;22.28;98.36;101508.13;5017624;28;20041;-58
2023/07/08 07:05:09;;;;;;;6.18;3.20;;;;;;;22.37;98.38;101508.19;5010743;28;20073;-58
2023/07/08 07:07:37;;;;;;;7.93;3.13;;;;;;;22.46;95.26;101501.88;5031373;28;20084;-58
2023/07/08 07:10:07;;;;;;;6.75;3.15;;;;;;;22.56;95.59;101499.88;5015856;28;20042;-59
2023/07/08 07:12:36;;;;;;;7.30;3.08;;;;;;;22.72;97.43;101500.94;5016714;28;20068;-58
2023/07/08 07:15:06;;;;;;;7.40;3.45;;;;;;;22.87;95.02;101503.81;5012362;28;20092;-57
2023/07/08 07:17:35;;;;;;;5.70;3.10;;;;;;;22.97;92.63;101507.16;5017531;28;20042;-57
2023/07/08 07:20:06;;;;;;;7.50;3.40;;;;;;;23.17;90.36;101504.22;5019144;28;20095;-58
2023/07/08 07:22:35;;;;;;;8.23;3.17;;;;;;;23.32;91.67;101510.59;5015178;28;20095;-58
2023/07/08 07:25:03;;;;;;;7.40;3.50;;;;;;;23.45;88.82;101515.41;5014761;28;20129;-59
2023/07/08 07:27:32;;;;;;;7.85;3.20;;;;;;;23.66;88.57;101506.03;5015343;28;20046;-60
2023/07/08 07:30:01;;;;;;;6.03;2.92;;;;;;;23.76;88.19;101507.53;5013420;28;20769;-59
2023/07/08 07:32:31;;;;;;;7.35;3.33;;;;;;;23.87;87.11;101513.53;5001481;28;20049;-58
2023/07/08 07:35:00;;;;;;;5.82;2.90;;;;;;;24.02;86.03;101495.72;5000145;28;20797;-59
2023/07/08 07:37:30;;;;;;;5.75;2.97;;;;;;;24.29;82.82;101507.03;4997107;28;20053;-59
2023/07/08 07:39:59;;;;;;;8.40;3.60;;;;;;;24.42;87.85;101501.94;5005536;28;20097;-59
2023/07/08 07:42:29;;;;;;;7.50;3.17;;;;;;;24.55;84.33;101505.91;5000584;28;20048;-59
2023/07/08 07:44:58;;;;;;;6.65;3.38;;;;;;;24.77;84.71;101507.84;4997540;28;20046;-58
2023/07/08 07:47:26;;;;;;;6.70;3.22;;;;;;;24.94;83.10;101496.97;4995418;28;20046;-59
2023/07/08 07:49:58;;;;;;;7.95;3.30;;;;;;;25.04;81.14;101489.47;4993671;28;20105;-58
2023/07/08 07:52:26;;;;;;;9.13;3.95;;;;;;;25.13;78.46;101499.16;4994513;28;20065;-60
2023/07/08 07:54:56;;;;;;;6.57;3.47;;;;;;;25.28;81.95;101496.50;4997276;28;20050;-58
2023/07/08 07:57:25;;;;;;;7.38;3.70;;;;;;;25.52;81.26;101491.09;4995898;28;20884;-59
2023/07/08 07:59:53;;;;;;;7.28;3.30;;;;;;;25.65;82.21;101488.63;4995317;28;20053;-58
2023/07/08 08:02:21;;;;;;;7.13;3.65;;;;;;;25.80;79.32;101489.47;4994550;28;20129;-59
2023/07/08 08:04:49;;;;;;;5.18;3.10;;;;;;;25.93;78.21;101488.81;4996014;28;20517;-58
2023/07/08 08:07:18;;;;;;;8.00;3.60;;;;;;;26.12;77.30;101490.16;4996082;28;20056;-59
2023/07/08 08:09:46;;;;;;;10.48;3.33;;;;;;;26.12;77.52;101486.59;5001207;28;20088;-58
2023/07/08 08:12:15;;;;;;;6.15;3.10;;;;;;;26.31;73.96;101479.78;4996463;28;20041;-58
2023/07/08 08:14:43;;;;;;;7.00;3.35;;;;;;;26.48;73.68;101489.31;5000373;28;20121;-59
2023/07/08 08:17:11;;;;;;;9.55;3.30;;;;;;;26.64;75.42;101482.00;5007272;28;20046;-59
2023/07/08 08:19:40;;;;;;;7.47;3.13;;;;;;;26.75;72.08;101480.72;4994397;28;20046;-59
2023/07/08 08:22:08;;;;;;;7.07;3.58;;;;;;;26.97;70.62;101492.34;4998005;28;20073;-58
2023/07/08 08:24:36;;;;;;;7.82;3.50;;;;;;;27.09;72.04;101489.94;4995286;28;20580;-59
2023/07/08 08:27:05;;;;;;;7.63;3.25;;;;;;;27.29;73.07;101495.53;4996225;28;20050;-58
2023/07/08 08:29:34;;;;;;;7.00;3.40;;;;;;;27.54;71.08;101495.13;5000557;28;20485;-59
2023/07/08 08:32:03;;;;;;;7.15;3.33;;;;;;;27.66;67.92;101498.94;4997462;28;20053;-59
2023/07/08 08:34:31;;;;;;;6.43;3.20;;;;;;;27.88;69.10;101497.00;5004123;28;20041;-59
2023/07/08 08:37:00;;;;;;;7.35;3.70;;;;;;;28.07;65.76;101489.22;5005755;28;20049;-58
2023/07/08 08:39:29;;;;;;;8.63;3.72;;;;;;;28.23;64.53;101498.88;5009658;28;20104;-58
2023/07/08 08:41:58;;;;;;;7.65;3.72;;;;;;;28.33;62.55;101502.00;5008696;28;20046;-58
2023/07/08 08:44:36;;;;;;;7.60;3.90;;;;;;;28.62;64.00;101518.97;5009329;28;20081;-59
2023/07/08 08:47:11;;;;;;;9.65;3.85;;;;;;;28.54;63.46;101511.88;5007852;28;20501;-58
2023/07/08 08:49:45;;;;;;;6.93;3.28;;;;;;;28.86;61.53;101505.94;5011298;28;20066;-58
2023/07/08 08:52:14;;;;;;;16.80;4.30;;;;;;;28.85;63.76;101518.66;5009018;28;20120;-58
2023/07/08 08:54:43;;;;;;;6.18;3.33;;;;;;;29.00;62.56;101513.88;5008654;28;20071;-58
2023/07/08 08:57:33;;;;;;;7.13;3.70;;;;;;;29.17;61.37;101516.16;5008752;28;20050;-58
2023/07/08 09:00:03;;;;;;;8.75;3.78;;;;;;;29.40;63.31;101510.38;5008276;28;20517;-59
2023/07/08 09:02:35;;;;;;;8.45;4.18;;;;;;;29.53;61.71;101505.97;5011520;28;20034;-58
2023/07/08 09:05:05;;;;;;;;;;;;;;;29.90;59.42;101517.19;5008480;28;20045;-58
2023/07/08 09:07:41;;;;;;;6.45;3.60;;;;;;;29.94;55.91;101505.72;5008746;28;20022;-58
2023/07/08 09:10:30;;;;;;;7.47;3.70;;;;;;;30.23;59.83;101508.09;5008938;28;20049;-59
2023/07/08 09:13:01;;;;;;;7.30;3.65;;;;;;;30.32;55.71;101499.53;5007917;28;20662;-59
2023/07/08 09:15:31;;;;;;;9.80;3.97;;;;;;;30.56;56.71;101505.25;5009181;28;20137;-59
2023/07/08 09:18:18;;;;;;;8.10;4.30;;;;;;;30.70;51.55;101508.72;5007176;28;20053;-58
2023/07/08 09:20:47;;;;;;;6.93;3.72;;;;;;;30.76;53.51;101507.88;5010968;28;20122;-59
2023/07/08 09:23:21;;;;;;;7.72;4.00;;;;;;;31.10;51.43;101510.34;5008088;28;20121;-58
2023/07/08 09:25:55;;;;;;;7.22;4.03;;;;;;;31.22;51.85;101503.16;5007775;28;20108;-58
2023/07/08 09:28:36;;;;;;;8.38;4.25;;;;;;;31.28;51.42;101501.44;5008529;28;20558;-59
2023/07/08 09:31:09;;;;;;;6.07;3.65;;;;;;;31.52;49.26;101497.88;5010793;28;20041;-58
2023/07/08 09:33:39;;;;;;;9.25;4.18;;;;;;;31.48;49.05;101493.94;5011995;28;20493;-60
2023/07/08 09:36:19;;;;;;;12.30;4.47;;;;;;;31.72;49.50;101498.75;5011972;28;20050;-59
2023/07/08 09:38:50;;;;;;;9.15;4.50;;;;;;;31.82;45.80;101497.16;5010531;28;20046;-58
2023/07/08 09:41:30;;;;;;;6.57;3.92;;;;;;;31.94;50.23;101491.78;5011796;28;20057;-58
2023/07/08 09:44:19;;;;;;;10.30;4.80;;;;;;;32.22;47.75;101493.16;5007421;28;20705;-57
2023/07/08 09:46:49;;;;;;;8.63;4.22;;;;;;;32.30;48.20;101494.72;5009270;28;20046;-58
2023/07/08 09:49:24;;;;;;;9.02;4.35;;;;;;;32.56;46.55;101495.41;5011612;28;20049;-59
2023/07/08 09:51:53;;;;;;;7.22;4.05;;;;;;;32.52;44.66;101487.72;5011619;28;20104;-60
2023/07/08 09:54:23;;;;;;;9.15;4.35;;;;;;;32.61;48.36;101490.94;5007104;28;20064;-60
2023/07/08 09:56:59;;;;;;;7.75;4.68;;;;;;;32.77;44.85;101488.66;5008396;28;20046;-59
2023/07/08 09:59:32;;;;;;;7.10;4.10;;;;;;;32.83;43.94;101498.59;5009188;28;20100;-60
2023/07/08 10:02:04;;;;;;;7.70;4.13;;;;;;;33.05;44.85;101490.72;5008991;28;20054;-59
2023/07/08 10:04:32;;;;;;;;;;;;;;;33.40;44.08;101481.75;5010471;28;20045;-59
2023/07/08 10:07:01;;;;;;;8.05;4.50;;;;;;;33.53;44.09;101486.94;5014465;28;20308;-58
2023/07/08 10:09:29;;;;;;;7.22;4.57;;;;;;;33.52;44.84;101485.28;5015318;28;20535;-58
2023/07/08 10:12:08;;;;;;;7.80;4.15;;;;;;;33.79;45.05;101489.44;5014879;28;20076;-58
2023/07/08 10:14:40;;;;;;;8.20;4.43;;;;;;;33.78;41.62;101501.41;5014911;28;20452;-58
2023/07/08 10:17:15;;;;;;;10.43;4.72;;;;;;;33.92;41.44;101499.25;5011729;28;20378;-58
2023/07/08 10:19:44;;;;;;;7.32;4.00;;;;;;;34.20;43.17;101501.19;5011928;28;20058;-60
2023/07/08 10:22:31;;;;;;;8.88;4.63;;;;;;;34.38;44.83;101505.66;5012248;28;20100;-58
2023/07/08 10:25:10;;;;;;;9.82;5.00;;;;;;;34.54;42.24;101493.13;5011545;28;20085;-58
2023/07/08 10:27:45;;;;;;;9.23;4.47;;;;;;;34.89;40.36;101494.81;5012369;28;20044;-59
2023/07/08 10:30:22;;;;;;;7.10;4.50;;;;;;;35.06;40.42;101502.22;5012265;28;20049;-59
2023/07/08 10:33:13;;;;;;;7.45;4.43;;;;;;;35.10;41.44;101495.19;5011169;28;20058;-58
2023/07/08 10:35:46;;;;;;;8.52;4.60;;;;;;;35.30;39.59;101483.69;5012253;28;20048;-58
2023/07/08 10:38:32;;;;;;;8.00;4.70;;;;;;;35.46;39.42;101496.53;5012299;28;20077;-58
2023/07/08 10:41:06;;;;;;;9.07;4.70;;;;;;;35.40;38.89;101494.81;5012020;28;20046;-58
2023/07/08 10:43:47;;;;;;;7.70;4.70;;;;;;;35.20;39.91;101503.50;5011232;28;20046;-57
2023/07/08 10:46:27;;;;;;;9.93;4.82;;;;;;;35.30;41.50;101500.09;5011707;28;20068;-58
2023/07/08 10:49:22;;;;;;;7.72;4.90;;;;;;;35.30;38.97;101509.16;5011095;28;20519;-58
2023/07/08 10:52:02;;;;;;;8.18;4.85;;;;;;;35.68;40.78;101499.31;5011333;28;20220;-58
2023/07/08 10:54:52;;;;;;;8.60;4.88;;;;;;;35.61;39.35;101497.84;5013066;28;20756;-58
2023/07/08 10:57:43;;;;;;;6.90;4.72;;;;;;;35.62;39.00;101497.59;4991111;28;20058;-59
2023/07/08 11:00:24;;;;;;;8.60;4.20;;;;;;;35.90;40.49;101493.06;4992159;28;20045;-59
2023/07/08 11:03:19;;;;;;;8.60;4.88;;;;;;;35.84;41.67;101488.59;4993840;28;20045;-58
2023/07/08 11:05:57;;;;;;;9.13;4.85;;;;;;;35.76;40.38;101484.34;5011420;28;20120;-59
2023/07/08 11:08:30;;;;;;;8.98;5.05;;;;;;;35.85;37.57;101479.31;5011615;28;20053;-59
2023/07/08 11:11:02;;;;;;;9.25;4.80;;;;;;;36.25;38.21;101471.81;5011562;28;20054;-58
2023/07/08 11:13:48;;;;;;;9.23;5.05;;;;;;;36.35;37.77;101474.69;5017797;28;20038;-59
2023/07/08 11:16:24;;;;;;;8.73;4.45;;;;;;;36.57;37.99;101482.84;5023705;28;20067;-58
2023/07/08 11:18:57;;;;;;;8.73;4.82;;;;;;;36.64;38.14;101477.16;5008369;28;20069;-58
2023/07/08 11:21:32;;;;;;;8.65;4.80;;;;;;;36.83;38.45;101483.09;5020694;28;20493;-58
2023/07/08 11:24:07;;;;;;;8.38;4.82;;;;;;;36.98;39.10;101477.75;5010429;28;20073;-58
2023/07/08 11:26:42;;;;;;;7.63;4.63;;;;;;;36.45;37.90;101468.50;5010178;28;20420;-58
2023/07/08 11:29:21;;;;;;;8.90;4.80;;;;;;;36.98;37.95;101474.19;5010461;28;20473;-58
2023/07/08 11:31:51;;;;;;;8.55;4.70;;;;;;;37.30;35.27;101467.81;5009874;28;20041;-59
2023/07/08 11:34:21;;;;;;;7.07;4.55;;;;;;;37.58;35.94;101477.56;5010506;28;20054;-58
2023/07/08 11:36:52;;;;;;;7.68;4.85;;;;;;;37.79;34.59;101474.94;5010398;28;20472;-58
2023/07/08 11:39:34;;;;;;;9.18;5.10;;;;;;;37.76;34.29;101478.22;5010355;28;20050;-58
2023/07/08 11:42:16;;;;;;;8.77;5.10;;;;;;;37.71;35.79;101482.59;5010166;28;20176;-58